Time;durP1;ratioP1;P1;durP2;ratioP2;P2;SDS_P1;SDS_P2;PMS_P1;PMS_P2;Temp;Humidity;BMP_temperature;BMP_pressure;BME280_temperature;BME280_humidity;BME280_pressure;Samples;Min_cycle;Max_cycle;Signal;HPM_P1;HPM_P2
2020/12/09 00:00:07;;;;;;;1.27;0.38;;;4.00;92.00;;;;;;4102137;28;20059;-86
2020/12/09 00:02:09;;;;;;;1.67;0.88;;;4.00;92.10;;;;;;4085656;29;20062;-87
2020/12/09 00:04:11;;;;;;;0.73;0.73;;;4.00;92.50;;;;;;4101220;28;20055;-86
2020/12/09 00:06:12;;;;;;;0.20;0.20;;;4.00;92.70;;;;;;4101664;28;20523;-88
2020/12/09 00:08:14;;;;;;;1.13;0.70;;;3.90;92.70;;;;;;4117242;28;20066;-87
2020/12/09 00:10:15;;;;;;;0.82;0.30;;;3.90;92.90;;;;;;4100835;28;20120;-86
2020/12/09 00:12:16;;;;;;;0.73;0.65;;;3.90;92.90;;;;;;4081356;29;20059;-86
2020/12/09 00:14:18;;;;;;;0.95;0.63;;;3.90;93.10;;;;;;4100331;28;20133;-86
2020/12/09 00:16:19;;;;;;;1.35;0.70;;;3.90;93.00;;;;;;4116833;28;20693;-87
2020/12/09 00:18:21;;;;;;;0.68;0.68;;;3.90;93.20;;;;;;4101769;28;20420;-85
2020/12/09 00:20:23;;;;;;;0.90;0.90;;;3.90;93.50;;;;;;4100743;28;20555;-86
2020/12/09 00:22:24;;;;;;;0.47;0.47;;;3.90;93.80;;;;;;4084800;29;20536;-88
2020/12/09 00:24:28;;;;;;;0.63;0.55;;;3.80;93.80;;;;;;4098435;29;20150;-86
2020/12/09 00:26:29;;;;;;;2.13;1.58;;;3.80;93.90;;;;;;4082905;29;20047;-86
2020/12/09 00:28:30;;;;;;;0.30;0.30;;;3.80;93.80;;;;;;4084526;29;20055;-87
2020/12/09 00:30:32;;;;;;;4.22;0.60;;;3.90;94.00;;;;;;4101312;28;20492;-86
2020/12/09 00:32:36;;;;;;;1.50;1.40;;;3.80;93.90;;;;;;4084616;29;20184;-87
2020/12/09 00:34:37;;;;;;;0.23;0.23;;;3.80;94.00;;;;;;4116441;28;20606;-85
2020/12/09 00:36:39;;;;;;;0.63;0.30;;;3.90;94.00;;;;;;4084844;29;20062;-86
2020/12/09 00:38:40;;;;;;;1.27;0.80;;;3.90;94.00;;;;;;4100490;28;20056;-87
2020/12/09 00:40:43;;;;;;;0.75;0.75;;;3.90;93.80;;;;;;4100674;28;20099;-86
2020/12/09 00:42:45;;;;;;;0.88;0.63;;;3.90;93.80;;;;;;4084934;28;20055;-86
2020/12/09 00:44:46;;;;;;;0.65;0.57;;;4.00;93.50;;;;;;4084658;28;20056;-87
2020/12/09 00:46:47;;;;;;;1.13;0.60;;;4.00;93.40;;;;;;4100620;28;20066;-86
2020/12/09 00:48:49;;;;;;;1.05;0.88;;;4.00;93.30;;;;;;4085068;28;20111;-87
2020/12/09 00:50:51;;;;;;;4.05;0.50;;;4.00;93.20;;;;;;4100726;28;20083;-86
2020/12/09 00:52:53;;;;;;;1.25;1.23;;;4.00;93.30;;;;;;4100388;28;20063;-86
2020/12/09 00:54:55;;;;;;;2.22;0.95;;;4.00;93.30;;;;;;4100374;28;20048;-87
2020/12/09 00:56:57;;;;;;;0.52;0.50;;;4.00;93.00;;;;;;4105213;28;20051;-86
2020/12/09 00:58:58;;;;;;;0.47;0.28;;;4.00;93.00;;;;;;4100114;28;20057;-86
2020/12/09 01:01:00;;;;;;;0.98;0.98;;;4.00;92.90;;;;;;4100169;28;20451;-86
2020/12/09 01:03:01;;;;;;;0.85;0.85;;;4.00;92.50;;;;;;4098902;28;20055;-88
2020/12/09 01:05:06;;;;;;;2.25;1.23;;;4.00;92.50;;;;;;4094133;28;20055;-87
2020/12/09 01:07:07;;;;;;;0.55;0.55;;;4.00;92.60;;;;;;4116270;28;20395;-86
2020/12/09 01:09:08;;;;;;;1.25;1.08;;;4.00;92.80;;;;;;4100465;28;20130;-87
2020/12/09 01:11:09;;;;;;;1.08;0.75;;;4.00;92.30;;;;;;4083797;29;20231;-87
2020/12/09 01:13:11;;;;;;;1.10;1.05;;;4.00;92.20;;;;;;4116444;28;20073;-87
2020/12/09 01:15:12;;;;;;;2.88;1.33;;;4.00;91.80;;;;;;4084237;29;20060;-87
2020/12/09 01:17:13;;;;;;;0.85;0.60;;;4.00;92.10;;;;;;4084091;29;20047;-86
2020/12/09 01:19:14;;;;;;;0.32;0.32;;;4.00;92.10;;;;;;4116265;28;20051;-87
2020/12/09 01:21:24;;;;;;;1.05;0.95;;;4.00;92.20;;;;;;4095976;28;20496;-87
2020/12/09 01:23:25;;;;;;;4.75;1.13;;;4.00;92.30;;;;;;4100659;28;20127;-87
2020/12/09 01:25:26;;;;;;;0.52;0.50;;;4.00;91.90;;;;;;4099898;28;20047;-86
2020/12/09 01:27:28;;;;;;;1.20;0.60;;;4.00;92.10;;;;;;4100430;28;20527;-86
2020/12/09 01:29:29;;;;;;;0.98;0.82;;;4.00;92.20;;;;;;4099530;28;20051;-87
2020/12/09 01:31:31;;;;;;;0.85;0.43;;;4.00;92.20;;;;;;4115720;28;20078;-86
2020/12/09 01:33:32;;;;;;;0.75;0.45;;;4.00;91.90;;;;;;4100614;28;20058;-86
2020/12/09 01:35:33;;;;;;;0.75;0.50;;;4.00;92.00;;;;;;4097621;28;20515;-87
2020/12/09 01:37:34;;;;;;;0.50;0.50;;;4.00;92.00;;;;;;4083520;29;20055;-87
2020/12/09 01:39:36;;;;;;;1.75;0.52;;;4.00;92.10;;;;;;4100490;28;20512;-87
2020/12/09 01:41:37;;;;;;;0.70;0.50;;;4.00;91.70;;;;;;4115183;28;20054;-86
2020/12/09 01:43:48;;;;;;;1.30;0.82;;;4.00;91.90;;;;;;4084051;29;20055;-87
2020/12/09 01:45:49;;;;;;;1.48;0.95;;;4.00;91.80;;;;;;4069459;28;20142;-88
2020/12/09 01:47:51;;;;;;;1.80;1.52;;;4.00;92.00;;;;;;4114613;28;20515;-87
2020/12/09 01:49:53;;;;;;;1.75;1.10;;;3.90;91.90;;;;;;4099611;28;20043;-87
2020/12/09 01:51:54;;;;;;;0.50;0.50;;;3.90;91.60;;;;;;4099502;28;20075;-86
2020/12/09 01:53:57;;;;;;;3.38;0.90;;;3.90;91.50;;;;;;4099797;28;20411;-86
2020/12/09 01:55:59;;;;;;;0.73;0.68;;;3.90;91.70;;;;;;4115230;28;20065;-87
2020/12/09 01:58:00;;;;;;;0.68;0.68;;;3.90;91.80;;;;;;4099386;28;20047;-88
2020/12/09 02:00:01;;;;;;;0.88;0.40;;;3.90;91.40;;;;;;4099821;28;20062;-86
2020/12/09 02:02:03;;;;;;;3.00;0.95;;;3.90;91.50;;;;;;4083297;29;20051;-86
2020/12/09 02:04:04;;;;;;;0.32;0.32;;;3.80;91.30;;;;;;4115190;28;20050;-87
2020/12/09 02:06:05;;;;;;;0.20;0.20;;;3.80;91.50;;;;;;4099842;28;20055;-86
2020/12/09 02:08:06;;;;;;;0.45;0.45;;;3.80;91.50;;;;;;4083279;29;20135;-86
2020/12/09 02:10:08;;;;;;;3.03;0.60;;;3.80;91.30;;;;;;4082870;29;20068;-86
2020/12/09 02:12:10;;;;;;;0.80;0.50;;;3.80;91.30;;;;;;4087718;29;20560;-87
2020/12/09 02:14:11;;;;;;;1.25;0.70;;;3.80;91.30;;;;;;4098903;28;20521;-86
2020/12/09 02:16:13;;;;;;;0.88;0.88;;;3.80;91.30;;;;;;4083427;29;20421;-86
2020/12/09 02:18:14;;;;;;;0.40;0.40;;;3.80;90.80;;;;;;4083297;28;20063;-86
2020/12/09 02:20:16;;;;;;;1.48;0.57;;;3.80;90.90;;;;;;4083166;29;20051;-86
2020/12/09 02:22:17;;;;;;;1.45;0.85;;;3.80;90.90;;;;;;4114651;28;20047;-86
2020/12/09 02:24:18;;;;;;;0.77;0.77;;;3.80;91.10;;;;;;4083623;29;20063;-86
2020/12/09 02:26:20;;;;;;;1.50;0.80;;;3.80;91.10;;;;;;4083293;29;20058;-88
2020/12/09 02:28:21;;;;;;;2.00;0.90;;;3.80;91.10;;;;;;4083771;29;20107;-86
2020/12/09 02:30:22;;;;;;;0.70;0.68;;;3.80;90.90;;;;;;4114222;28;20041;-87
2020/12/09 02:32:23;;;;;;;1.70;0.50;;;3.80;90.90;;;;;;4114624;28;20106;-86
2020/12/09 02:34:25;;;;;;;0.45;0.45;;;3.70;90.90;;;;;;4099192;28;20059;-86
2020/12/09 02:36:26;;;;;;;1.65;0.40;;;3.60;90.90;;;;;;4099573;28;20161;-86
2020/12/09 02:38:27;;;;;;;1.85;0.45;;;3.60;91.00;;;;;;4114233;28;20042;-86
2020/12/09 02:40:28;;;;;;;0.50;0.30;;;3.60;91.30;;;;;;4083109;29;20068;-86
2020/12/09 02:42:29;;;;;;;0.55;0.52;;;3.50;91.30;;;;;;4083210;29;20056;-87
2020/12/09 02:44:31;;;;;;;6.80;1.63;;;3.50;91.30;;;;;;4110853;28;20050;-86
2020/12/09 02:46:32;;;;;;;0.40;0.40;;;3.40;91.30;;;;;;4098753;28;20043;-86
2020/12/09 02:48:33;;;;;;;0.82;0.47;;;3.40;91.30;;;;;;4083362;29;20142;-86
2020/12/09 02:50:35;;;;;;;0.85;0.85;;;3.40;91.30;;;;;;4097733;28;20053;-86
2020/12/09 02:52:36;;;;;;;0.43;0.43;;;3.40;91.30;;;;;;4098390;28;20567;-86
2020/12/09 02:54:37;;;;;;;0.40;0.40;;;3.40;91.20;;;;;;4099607;28;20055;-86
2020/12/09 02:56:38;;;;;;;1.05;0.80;;;3.50;91.40;;;;;;4082816;29;20152;-86
2020/12/09 02:58:40;;;;;;;0.82;0.52;;;3.40;91.30;;;;;;4114435;28;20051;-86
2020/12/09 03:00:41;;;;;;;0.82;0.77;;;3.40;91.70;;;;;;4099047;28;20150;-86
2020/12/09 03:02:42;;;;;;;0.98;0.68;;;3.40;91.30;;;;;;4082601;29;20054;-87
2020/12/09 03:04:44;;;;;;;0.20;0.20;;;3.40;91.20;;;;;;4094830;28;20423;-86
2020/12/09 03:06:45;;;;;;;0.32;0.32;;;3.40;91.30;;;;;;4098394;28;20055;-87
2020/12/09 03:08:46;;;;;;;0.93;0.47;;;3.40;91.40;;;;;;4081809;29;20079;-87
2020/12/09 03:10:47;;;;;;;0.40;0.40;;;3.40;91.80;;;;;;4099446;28;20057;-86
2020/12/09 03:12:49;;;;;;;1.30;0.57;;;3.40;91.60;;;;;;4082963;28;20051;-87
2020/12/09 03:14:51;;;;;;;1.45;1.35;;;3.40;91.70;;;;;;4099019;28;20141;-86
2020/12/09 03:16:52;;;;;;;1.42;1.25;;;3.40;91.90;;;;;;4082641;29;20048;-86
2020/12/09 03:18:53;;;;;;;0.50;0.50;;;3.40;91.90;;;;;;4098329;28;20059;-87
2020/12/09 03:20:55;;;;;;;0.52;0.45;;;3.40;91.80;;;;;;4098922;28;20069;-85
2020/12/09 03:22:56;;;;;;;0.40;0.40;;;3.40;91.90;;;;;;4098124;28;20055;-86
2020/12/09 03:24:57;;;;;;;0.40;0.40;;;3.40;91.90;;;;;;4085538;29;20074;-86
2020/12/09 03:26:58;;;;;;;0.70;0.70;;;3.30;92.30;;;;;;4117561;28;20503;-86
2020/12/09 03:29:00;;;;;;;0.60;0.45;;;3.30;92.20;;;;;;4085573;29;20048;-86
2020/12/09 03:31:02;;;;;;;1.85;1.02;;;3.30;92.50;;;;;;4085752;29;20064;-86
2020/12/09 03:33:04;;;;;;;1.50;1.40;;;3.30;92.40;;;;;;4086287;29;20431;-87
2020/12/09 03:35:05;;;;;;;1.17;1.05;;;3.30;92.40;;;;;;4101689;28;20158;-86
2020/12/09 03:37:06;;;;;;;2.17;1.48;;;3.30;92.50;;;;;;4116607;28;20047;-86
2020/12/09 03:39:07;;;;;;;2.95;1.25;;;3.30;92.70;;;;;;4085654;29;20515;-87
2020/12/09 03:41:09;;;;;;;1.65;0.90;;;3.30;92.80;;;;;;4117087;28;20051;-86
2020/12/09 03:43:10;;;;;;;2.00;1.02;;;3.30;92.80;;;;;;4101322;28;20054;-88
2020/12/09 03:45:11;;;;;;;0.40;0.40;;;3.30;92.90;;;;;;4086146;29;20058;-86
2020/12/09 03:47:12;;;;;;;2.05;1.75;;;3.30;93.00;;;;;;4101071;28;20519;-85
2020/12/09 03:49:14;;;;;;;2.72;0.50;;;3.30;93.10;;;;;;4101106;29;20053;-86
2020/12/09 03:51:15;;;;;;;0.38;0.38;;;3.30;93.10;;;;;;4101198;28;20555;-86
2020/12/09 03:53:21;;;;;;;0.90;0.88;;;3.30;93.20;;;;;;4101498;28;20358;-86
2020/12/09 03:55:22;;;;;;;0.40;0.40;;;3.30;93.20;;;;;;4101382;28;20051;-88
2020/12/09 03:57:23;;;;;;;1.13;0.60;;;3.20;93.30;;;;;;4101743;28;20058;-86
2020/12/09 03:59:24;;;;;;;3.05;1.60;;;3.20;93.60;;;;;;4101045;28;20086;-86
2020/12/09 04:01:26;;;;;;;3.85;1.77;;;3.30;93.30;;;;;;4101100;28;20428;-87
2020/12/09 04:03:27;;;;;;;0.98;0.82;;;3.30;93.40;;;;;;4101703;28;20059;-86
2020/12/09 04:05:28;;;;;;;0.30;0.30;;;3.30;93.50;;;;;;4100715;28;20069;-87
2020/12/09 04:07:30;;;;;;;2.17;0.82;;;3.20;93.50;;;;;;4116616;28;20059;-86
2020/12/09 04:09:31;;;;;;;1.30;0.70;;;3.20;93.60;;;;;;4117211;28;20055;-87
2020/12/09 04:11:32;;;;;;;1.65;0.93;;;3.10;93.70;;;;;;4084528;28;20043;-87
2020/12/09 04:13:33;;;;;;;0.50;0.50;;;3.10;93.70;;;;;;4101080;28;20054;-86
2020/12/09 04:15:35;;;;;;;2.42;1.08;;;3.10;93.70;;;;;;4101573;28;20061;-85
2020/12/09 04:17:36;;;;;;;0.57;0.57;;;3.10;93.80;;;;;;4085002;29;20064;-86
2020/12/09 04:19:38;;;;;;;0.85;0.65;;;3.10;93.90;;;;;;4100629;28;20127;-86
2020/12/09 04:21:42;;;;;;;0.68;0.68;;;3.00;94.00;;;;;;4101281;28;20062;-86
2020/12/09 04:23:43;;;;;;;3.28;0.57;;;3.00;94.00;;;;;;4101156;28;20055;-85
2020/12/09 04:25:44;;;;;;;2.45;0.80;;;3.00;94.10;;;;;;4116835;28;20047;-86
2020/12/09 04:27:46;;;;;;;0.52;0.52;;;2.90;94.00;;;;;;4101169;28;20054;-87
2020/12/09 04:29:47;;;;;;;1.00;0.73;;;3.00;94.10;;;;;;4116665;28;20055;-86
2020/12/09 04:31:49;;;;;;;1.05;0.95;;;3.00;94.20;;;;;;4084146;29;20401;-87
2020/12/09 04:33:54;;;;;;;0.63;0.60;;;2.90;94.20;;;;;;4116876;28;20074;-87
2020/12/09 04:35:55;;;;;;;0.45;0.45;;;2.90;94.30;;;;;;4115533;28;20062;-86
2020/12/09 04:37:57;;;;;;;0.70;0.70;;;2.90;94.20;;;;;;4100346;28;20493;-86
2020/12/09 04:39:58;;;;;;;1.95;0.88;;;2.90;94.30;;;;;;4100922;28;20120;-86
2020/12/09 04:41:59;;;;;;;0.47;0.47;;;2.80;94.40;;;;;;4084372;29;20055;-85
2020/12/09 04:44:00;;;;;;;1.33;0.95;;;2.80;94.40;;;;;;4084658;29;20051;-86
2020/12/09 04:46:02;;;;;;;1.20;0.82;;;2.80;94.60;;;;;;4100662;28;20535;-86
2020/12/09 04:48:06;;;;;;;2.88;1.10;;;2.70;94.50;;;;;;4100863;28;20061;-87
2020/12/09 04:50:12;;;;;;;1.83;0.90;;;2.80;94.50;;;;;;4115945;28;20063;-87
2020/12/09 04:52:31;;;;;;;3.75;1.55;;;2.80;94.60;;;;;;4100306;28;20450;-86
2020/12/09 04:54:40;;;;;;;0.75;0.70;;;2.80;94.80;;;;;;4099764;28;20436;-87
2020/12/09 04:56:54;;;;;;;5.47;1.20;;;2.80;94.60;;;;;;4100248;28;20150;-86
2020/12/09 04:58:56;;;;;;;1.65;0.63;;;2.70;94.70;;;;;;4084110;28;20055;-85
2020/12/09 05:01:05;;;;;;;0.88;0.88;;;2.70;94.70;;;;;;4100707;28;20059;-85
2020/12/09 05:03:16;;;;;;;1.15;0.65;;;2.70;94.90;;;;;;4082875;29;20051;-85
2020/12/09 05:05:21;;;;;;;2.15;1.70;;;2.70;95.00;;;;;;4084008;28;20126;-87
2020/12/09 05:07:22;;;;;;;0.93;0.90;;;2.70;94.90;;;;;;4116163;28;20511;-87
2020/12/09 05:09:26;;;;;;;3.65;0.80;;;2.70;95.00;;;;;;4084704;29;20056;-85
2020/12/09 05:11:27;;;;;;;1.65;1.27;;;2.70;95.00;;;;;;4083694;29;20139;-85
2020/12/09 05:13:29;;;;;;;4.22;2.60;;;2.70;94.90;;;;;;4115881;28;20074;-85
2020/12/09 05:15:30;;;;;;;2.30;1.50;;;2.70;95.00;;;;;;4100337;28;20134;-86
2020/12/09 05:17:31;;;;;;;2.67;0.88;;;2.70;95.40;;;;;;4083660;29;20056;-86
2020/12/09 05:19:33;;;;;;;0.52;0.52;;;2.70;95.10;;;;;;4115709;28;20058;-86
2020/12/09 05:21:34;;;;;;;1.80;1.10;;;2.70;95.10;;;;;;4116337;28;20063;-86
2020/12/09 05:23:47;;;;;;;2.00;0.70;;;2.70;95.40;;;;;;4083382;29;20056;-85
2020/12/09 05:25:50;;;;;;;3.13;1.90;;;2.70;95.20;;;;;;4099616;28;20083;-86
2020/12/09 05:27:52;;;;;;;0.50;0.50;;;2.70;95.20;;;;;;4099815;28;20063;-86
2020/12/09 05:29:53;;;;;;;3.60;0.98;;;2.80;95.00;;;;;;4084062;29;20059;-86
2020/12/09 05:31:59;;;;;;;1.58;0.75;;;2.80;94.80;;;;;;4099223;28;20058;-86
2020/12/09 05:34:01;;;;;;;1.23;1.13;;;2.80;94.90;;;;;;4099903;28;20055;-86
2020/12/09 05:36:03;;;;;;;0.52;0.45;;;2.80;94.90;;;;;;4100638;28;20047;-85
2020/12/09 05:38:18;;;;;;;3.15;1.05;;;2.80;94.90;;;;;;4099357;28;20063;-86
2020/12/09 05:40:29;;;;;;;1.13;0.57;;;2.80;94.70;;;;;;4100215;28;20118;-86
2020/12/09 05:42:30;;;;;;;2.40;0.95;;;2.80;94.80;;;;;;4084264;29;20494;-87
2020/12/09 05:44:31;;;;;;;2.92;0.75;;;2.80;94.90;;;;;;4115329;28;20054;-86
2020/12/09 05:46:33;;;;;;;1.15;1.05;;;2.80;94.60;;;;;;4083305;29;20422;-86
2020/12/09 05:48:34;;;;;;;1.75;0.82;;;2.80;94.80;;;;;;4084378;29;20063;-85
2020/12/09 05:50:57;;;;;;;3.50;1.75;;;2.80;94.70;;;;;;4099339;28;20472;-85
2020/12/09 05:52:58;;;;;;;2.88;1.15;;;2.90;95.00;;;;;;4099305;28;20047;-85
2020/12/09 05:55:01;;;;;;;2.22;2.05;;;2.80;94.80;;;;;;4087027;29;20058;-86
2020/12/09 05:57:03;;;;;;;3.45;1.00;;;2.80;94.70;;;;;;4099703;28;20052;-86
2020/12/09 05:59:04;;;;;;;1.90;0.93;;;2.80;94.70;;;;;;4098461;28;20094;-86
2020/12/09 06:01:30;;;;;;;1.13;0.85;;;2.80;94.50;;;;;;4099059;28;20055;-85
2020/12/09 06:03:32;;;;;;;1.00;0.85;;;2.80;94.60;;;;;;4083761;29;20054;-86
2020/12/09 06:05:33;;;;;;;1.25;1.05;;;2.80;94.60;;;;;;4081843;29;20065;-85
2020/12/09 06:07:34;;;;;;;15.38;1.73;;;2.80;94.80;;;;;;4095111;28;20055;-85
2020/12/09 06:09:37;;;;;;;2.63;0.77;;;2.90;94.60;;;;;;4099310;28;20063;-85
2020/12/09 06:11:39;;;;;;;1.45;1.15;;;2.90;94.60;;;;;;4114742;28;20055;-85
2020/12/09 06:13:40;;;;;;;1.40;0.50;;;2.90;94.60;;;;;;4098208;28;20059;-85
2020/12/09 06:15:41;;;;;;;1.58;1.48;;;2.90;94.70;;;;;;4098613;28;20078;-86
2020/12/09 06:17:43;;;;;;;1.58;1.13;;;2.90;94.60;;;;;;4098583;28;20139;-85
2020/12/09 06:19:44;;;;;;;3.08;1.83;;;2.90;94.70;;;;;;4097890;28;20053;-85
2020/12/09 06:21:45;;;;;;;1.05;0.73;;;2.80;94.70;;;;;;4083032;29;20052;-86
2020/12/09 06:23:53;;;;;;;1.30;1.05;;;2.90;94.60;;;;;;4114502;28;20065;-85
2020/12/09 06:25:56;;;;;;;1.90;1.08;;;2.90;94.70;;;;;;4095745;28;20103;-85
2020/12/09 06:27:57;;;;;;;1.08;0.75;;;2.90;94.70;;;;;;4098772;28;20051;-86
2020/12/09 06:29:59;;;;;;;1.52;1.42;;;2.90;94.70;;;;;;4098888;28;20137;-86
2020/12/09 06:32:00;;;;;;;1.75;1.10;;;2.90;94.70;;;;;;4114312;28;20058;-85
2020/12/09 06:34:12;;;;;;;1.55;1.42;;;2.90;94.70;;;;;;4098313;28;20062;-85
2020/12/09 06:36:24;;;;;;;0.77;0.77;;;2.90;94.80;;;;;;4071688;29;20062;-85
2020/12/09 06:38:25;;;;;;;3.03;1.55;;;2.90;94.60;;;;;;4111685;28;20050;-86
2020/12/09 06:40:26;;;;;;;1.40;1.00;;;2.90;94.60;;;;;;4113780;28;20051;-86
2020/12/09 06:42:28;;;;;;;0.63;0.63;;;2.90;94.60;;;;;;4099034;28;20089;-86
2020/12/09 06:44:30;;;;;;;2.90;1.70;;;2.90;94.60;;;;;;4098735;28;20051;-85
2020/12/09 06:46:36;;;;;;;2.28;0.98;;;2.90;94.80;;;;;;4098294;28;20534;-87
2020/12/09 06:48:38;;;;;;;2.85;0.80;;;2.90;94.70;;;;;;4098598;29;20077;-86
2020/12/09 06:50:42;;;;;;;2.03;1.55;;;3.00;94.70;;;;;;4097776;28;20055;-85
2020/12/09 06:52:43;;;;;;;1.80;1.10;;;2.90;94.90;;;;;;4113653;28;20054;-85
2020/12/09 06:54:47;;;;;;;0.85;0.65;;;2.90;94.80;;;;;;4083061;29;20496;-85
2020/12/09 06:57:11;;;;;;;2.70;0.82;;;2.90;94.90;;;;;;4082556;29;20051;-85
2020/12/09 06:59:25;;;;;;;1.35;0.80;;;2.90;94.80;;;;;;4097691;28;20047;-86
2020/12/09 07:01:27;;;;;;;3.33;0.70;;;2.90;94.90;;;;;;4114406;28;20046;-85
2020/12/09 07:03:30;;;;;;;1.23;1.00;;;3.00;95.00;;;;;;4099210;28;20098;-95
2020/12/09 07:05:31;;;;;;;0.60;0.60;;;3.00;94.90;;;;;;4115215;28;20047;-90
2020/12/09 07:07:36;;;;;;;4.50;2.17;;;2.90;94.80;;;;;;4114615;28;20054;-90
2020/12/09 07:09:38;;;;;;;1.15;0.85;;;3.00;95.00;;;;;;4116113;28;20054;-90
2020/12/09 07:11:53;;;;;;;1.10;0.82;;;3.00;94.90;;;;;;4113809;28;20057;-88
2020/12/09 07:14:01;;;;;;;0.95;0.47;;;3.00;95.00;;;;;;4098936;28;20059;-90
2020/12/09 07:16:02;;;;;;;1.63;1.52;;;3.00;95.00;;;;;;4098741;28;20051;-92
2020/12/09 07:18:04;;;;;;;1.55;1.45;;;3.00;95.00;;;;;;4115579;28;20054;-91
2020/12/09 07:20:06;;;;;;;0.63;0.60;;;3.00;94.80;;;;;;4110883;28;20053;-92
2020/12/09 07:22:07;;;;;;;3.65;0.80;;;3.00;94.80;;;;;;4114504;28;20047;-92
2020/12/09 07:24:08;;;;;;;1.33;0.77;;;3.00;94.90;;;;;;4104391;28;20056;-93
2020/12/09 07:26:09;;;;;;;1.45;1.13;;;3.00;95.00;;;;;;4082629;29;20058;-93
2020/12/09 07:28:11;;;;;;;0.68;0.60;;;3.00;94.90;;;;;;4114345;28;20558;-92
2020/12/09 07:30:14;;;;;;;2.33;1.35;;;3.00;95.00;;;;;;4115424;28;20109;-96
2020/12/09 07:32:19;;;;;;;1.55;0.98;;;3.10;95.00;;;;;;4100132;28;20057;-95
2020/12/09 07:34:20;;;;;;;0.28;0.28;;;3.10;95.30;;;;;;4115343;28;20057;-95
2020/12/09 07:36:21;;;;;;;1.33;0.52;;;3.10;94.90;;;;;;4099963;28;20062;-94
2020/12/09 07:38:22;;;;;;;1.77;1.52;;;3.20;94.70;;;;;;4101830;28;20115;-94
2020/12/09 07:40:32;;;;;;;5.82;1.35;;;3.10;94.90;;;;;;4136300;28;20117;-93
2020/12/09 07:42:33;;;;;;;1.13;0.47;;;3.10;94.90;;;;;;4090422;28;20158;-93
2020/12/09 07:44:40;;;;;;;1.20;0.80;;;3.10;95.00;;;;;;4118719;28;20054;-92
2020/12/09 07:46:42;;;;;;;1.35;1.13;;;3.10;94.90;;;;;;4118160;28;20053;-93
2020/12/09 07:48:43;;;;;;;4.10;1.73;;;3.10;95.00;;;;;;4118393;28;20054;-94
2020/12/09 07:50:51;;;;;;;2.47;1.35;;;3.20;94.90;;;;;;4115983;28;20117;-92
2020/12/09 07:52:52;;;;;;;0.98;0.90;;;3.20;95.10;;;;;;4115195;28;20098;-93
2020/12/09 07:54:54;;;;;;;1.92;1.52;;;3.10;95.20;;;;;;4099145;28;20120;-93
2020/12/09 07:56:57;;;;;;;1.02;0.85;;;3.10;95.10;;;;;;4115095;28;20556;-93
2020/12/09 07:58:58;;;;;;;3.90;1.58;;;3.10;95.00;;;;;;4115599;28;20066;-95
2020/12/09 08:01:00;;;;;;;1.30;0.85;;;3.10;95.20;;;;;;4115531;28;20069;-94
2020/12/09 08:03:01;;;;;;;1.08;0.82;;;3.10;95.60;;;;;;4083663;29;20135;-92
2020/12/09 08:05:22;;;;;;;2.88;2.38;;;3.20;95.20;;;;;;4115952;28;20415;-94
2020/12/09 08:07:23;;;;;;;1.30;0.90;;;3.20;95.20;;;;;;4114185;28;20047;-93
2020/12/09 08:09:24;;;;;;;2.53;2.15;;;3.20;95.20;;;;;;4095726;28;20047;-93
2020/12/09 08:11:36;;;;;;;1.92;1.73;;;3.20;95.20;;;;;;4096527;29;20051;-92
2020/12/09 08:13:37;;;;;;;1.20;0.60;;;3.20;95.10;;;;;;4089085;28;20051;-93
2020/12/09 08:15:43;;;;;;;0.68;0.65;;;3.20;95.20;;;;;;4102889;28;20086;-92
2020/12/09 08:17:48;;;;;;;1.63;1.30;;;3.30;95.50;;;;;;4105738;28;20563;-93
2020/12/09 08:20:01;;;;;;;0.50;0.50;;;3.30;95.10;;;;;;4104344;28;20054;-88
2020/12/09 08:22:06;;;;;;;1.63;1.50;;;3.30;95.10;;;;;;4102505;28;20109;-92
2020/12/09 08:24:13;;;;;;;3.45;1.23;;;3.20;95.00;;;;;;4116485;28;20051;-87
2020/12/09 08:26:29;;;;;;;0.65;0.65;;;3.20;95.00;;;;;;4080581;29;20044;-92
2020/12/09 08:28:33;;;;;;;0.50;0.50;;;3.30;95.20;;;;;;4097797;28;20078;-95
2020/12/09 08:30:34;;;;;;;3.42;1.13;;;3.30;95.10;;;;;;4103424;28;20055;-92
2020/12/09 08:32:55;;;;;;;1.55;1.13;;;3.30;95.20;;;;;;4098398;28;20047;-91
2020/12/09 08:35:09;;;;;;;1.88;1.58;;;3.30;95.10;;;;;;4110833;28;20055;-95
2020/12/09 08:37:16;;;;;;;2.05;1.10;;;3.30;95.00;;;;;;4132520;28;20051;-95
2020/12/09 08:39:18;;;;;;;0.93;0.57;;;3.30;95.20;;;;;;4114862;28;20069;-96
2020/12/09 08:41:33;;;;;;;1.60;0.77;;;3.40;94.80;;;;;;4110894;28;20143;-96
2020/12/09 08:43:39;;;;;;;0.30;0.30;;;3.40;94.70;;;;;;4105698;28;20517;-96
2020/12/09 08:45:41;;;;;;;4.30;2.20;;;3.40;95.00;;;;;;4087871;29;20066;-96
2020/12/09 08:47:42;;;;;;;1.83;1.10;;;3.40;94.90;;;;;;4093185;28;20052;-96
2020/12/09 08:49:44;;;;;;;0.82;0.77;;;3.40;94.80;;;;;;4107411;28;20047;-94
2020/12/09 08:51:45;;;;;;;0.43;0.15;;;3.40;94.60;;;;;;4121189;28;20058;-93
2020/12/09 08:53:46;;;;;;;1.83;0.65;;;3.40;94.90;;;;;;4125791;28;20141;-96
2020/12/09 08:55:48;;;;;;;5.88;2.60;;;3.40;94.50;;;;;;4113237;28;20038;-95
2020/12/09 08:57:49;;;;;;;2.28;0.35;;;3.40;94.80;;;;;;4120533;28;20051;-93
2020/12/09 08:59:50;;;;;;;3.60;1.40;;;3.40;94.80;;;;;;4096545;29;20496;-92
2020/12/09 09:01:51;;;;;;;1.77;0.77;;;3.40;94.70;;;;;;4106103;28;20053;-90
2020/12/09 09:04:04;;;;;;;1.52;0.63;;;3.40;95.10;;;;;;4101680;28;20515;-96
2020/12/09 09:06:05;;;;;;;2.47;1.48;;;3.40;95.20;;;;;;4106747;28;20545;-92
2020/12/09 09:08:10;;;;;;;1.45;1.33;;;3.40;95.00;;;;;;4089819;29;20475;-88
2020/12/09 09:10:11;;;;;;;0.38;0.38;;;3.40;94.90;;;;;;4091810;28;20067;-94
2020/12/09 09:12:12;;;;;;;1.85;1.45;;;3.50;95.00;;;;;;4096161;28;20081;-95
2020/12/09 09:14:15;;;;;;;3.40;1.15;;;3.50;94.90;;;;;;4108410;28;20043;-95
2020/12/09 09:16:16;;;;;;;1.35;0.52;;;3.50;94.80;;;;;;4100188;28;20058;-92
2020/12/09 09:18:18;;;;;;;1.88;0.90;;;3.50;94.90;;;;;;4128450;28;20072;-94
2020/12/09 09:20:19;;;;;;;2.38;1.77;;;3.50;95.00;;;;;;4099812;28;20032;-89
2020/12/09 09:22:20;;;;;;;1.55;0.82;;;3.50;94.90;;;;;;4134488;28;20070;-89
2020/12/09 09:24:21;;;;;;;2.17;0.98;;;3.50;94.80;;;;;;4098016;29;20434;-86
2020/12/09 09:26:23;;;;;;;1.58;0.55;;;3.60;94.80;;;;;;4108385;28;20054;-93
2020/12/09 09:28:24;;;;;;;1.65;1.55;;;3.60;95.10;;;;;;4106720;28;20057;-93
2020/12/09 09:30:25;;;;;;;3.45;1.77;;;3.60;95.00;;;;;;4117458;28;20054;-91
2020/12/09 09:32:27;;;;;;;1.75;1.65;;;3.60;94.60;;;;;;4108962;28;20047;-91
2020/12/09 09:34:28;;;;;;;2.15;1.08;;;3.60;95.20;;;;;;4089253;29;20585;-94
2020/12/09 09:36:32;;;;;;;2.47;2.28;;;3.70;95.10;;;;;;4113710;28;20057;-95
2020/12/09 09:38:33;;;;;;;3.50;1.63;;;3.70;95.20;;;;;;4094086;29;20051;-93
2020/12/09 09:40:36;;;;;;;2.53;1.30;;;3.70;94.90;;;;;;4119295;28;20525;-92
2020/12/09 09:42:38;;;;;;;1.60;1.30;;;3.80;94.90;;;;;;4071085;29;20054;-93
2020/12/09 09:44:39;;;;;;;2.47;1.20;;;3.80;94.70;;;;;;4105472;28;20057;-95
2020/12/09 09:46:40;;;;;;;1.58;0.63;;;3.90;94.70;;;;;;4119376;28;20102;-93
2020/12/09 09:48:42;;;;;;;1.40;1.30;;;3.90;94.60;;;;;;4102885;28;20070;-94
2020/12/09 09:50:43;;;;;;;0.75;0.63;;;3.90;94.10;;;;;;4106335;28;20054;-93
2020/12/09 09:52:44;;;;;;;0.90;0.50;;;3.90;94.20;;;;;;4089466;28;20047;-93
2020/12/09 09:54:45;;;;;;;4.05;0.85;;;3.90;94.70;;;;;;4102479;28;20051;-93
2020/12/09 09:56:49;;;;;;;0.57;0.40;;;3.90;94.30;;;;;;4094976;29;20065;-93
2020/12/09 09:58:50;;;;;;;1.48;0.93;;;4.00;94.40;;;;;;4090246;28;20050;-91
2020/12/09 10:00:51;;;;;;;2.75;1.88;;;4.00;94.40;;;;;;4119668;28;20583;-92
2020/12/09 10:02:53;;;;;;;4.03;1.02;;;4.00;93.80;;;;;;4095746;28;20110;-92
2020/12/09 10:04:54;;;;;;;0.85;0.85;;;4.10;94.10;;;;;;4114630;28;20129;-93
2020/12/09 10:06:55;;;;;;;1.88;1.67;;;4.10;93.80;;;;;;4099906;28;20048;-93
2020/12/09 10:08:57;;;;;;;0.40;0.40;;;4.10;94.00;;;;;;4091925;29;20051;-93
2020/12/09 10:11:02;;;;;;;2.75;1.17;;;4.10;93.40;;;;;;4095806;28;20050;-93
2020/12/09 10:13:03;;;;;;;3.42;3.13;;;4.20;93.70;;;;;;4088771;28;20058;-93
2020/12/09 10:15:05;;;;;;;2.17;1.27;;;4.20;93.70;;;;;;4098859;29;20070;-94
2020/12/09 10:17:06;;;;;;;2.80;1.67;;;4.30;93.40;;;;;;4128881;28;20049;-92
2020/12/09 10:19:07;;;;;;;1.30;0.85;;;4.30;93.40;;;;;;4121050;28;20052;-93
2020/12/09 10:21:08;;;;;;;6.70;1.75;;;4.40;93.20;;;;;;4104109;28;20055;-93
2020/12/09 10:23:10;;;;;;;1.42;0.90;;;4.30;93.10;;;;;;4104008;28;20047;-93
2020/12/09 10:25:11;;;;;;;2.65;1.10;;;4.30;93.20;;;;;;4116119;28;20055;-92
2020/12/09 10:27:12;;;;;;;0.90;0.90;;;4.40;93.50;;;;;;4104211;28;20050;-90
2020/12/09 10:29:13;;;;;;;7.82;2.33;;;4.40;93.30;;;;;;4119666;28;20073;-92
2020/12/09 10:31:14;;;;;;;2.30;0.75;;;4.50;93.30;;;;;;4117601;28;20042;-92
2020/12/09 10:33:16;;;;;;;2.83;0.90;;;4.50;93.10;;;;;;4104396;28;20126;-92
2020/12/09 10:35:17;;;;;;;1.40;1.10;;;4.50;93.20;;;;;;4090484;28;20057;-91
2020/12/09 10:37:18;;;;;;;3.88;1.20;;;4.60;92.80;;;;;;4113702;28;20054;-92
2020/12/09 10:39:21;;;;;;;0.38;0.38;;;4.50;92.80;;;;;;4127399;28;20058;-92
2020/12/09 10:41:22;;;;;;;0.20;0.20;;;4.50;92.80;;;;;;4109983;28;20050;-92
2020/12/09 10:43:24;;;;;;;0.47;0.40;;;4.50;92.80;;;;;;4127813;28;20533;-93
2020/12/09 10:45:36;;;;;;;1.10;1.00;;;4.50;92.60;;;;;;4101600;28;20078;-93
2020/12/09 10:47:40;;;;;;;1.85;1.40;;;4.50;92.70;;;;;;4103738;28;20051;-89